Time;durP1;ratioP1;P1;durP2;ratioP2;P2;SDS_P1;SDS_P2;PMS_P1;PMS_P2;Temp;Humidity;BMP_temperature;BMP_pressure;BME280_temperature;BME280_humidity;BME280_pressure;Samples;Min_cycle;Max_cycle;Signal;HPM_P1;HPM_P2
2021/11/28 00:00:07;;;;;;;9.80;9.33;;;6.80;68.40;;;;;;5013411;28;20033;-83
2021/11/28 00:02:34;;;;;;;;;;;6.80;68.40;;;;;;4981749;28;21620;-87
2021/11/28 00:05:01;;;;;;;9.13;8.73;;;6.80;68.40;;;;;;5014143;28;19909;-87
2021/11/28 00:10:15;;;;;;;9.33;8.93;;;6.80;68.20;;;;;;5018040;28;20489;-87
2021/11/28 00:13:31;;;;;;;9.00;8.60;;;6.80;68.20;;;;;;5015373;28;20482;-87
2021/11/28 00:15:30;;;;;;;9.53;9.07;;;6.80;68.20;;;;;;5025303;28;20037;-88
2021/11/28 00:17:56;;;;;;;9.17;8.77;;;6.80;68.10;;;;;;5013084;28;20026;-87
2021/11/28 00:20:23;;;;;;;9.17;8.77;;;6.80;68.20;;;;;;5031322;28;20509;-87
2021/11/28 00:22:49;;;;;;;9.20;8.80;;;6.80;68.10;;;;;;5013739;28;20418;-88
2021/11/28 00:25:17;;;;;;;9.07;8.67;;;6.80;68.10;;;;;;5014033;28;20036;-88
2021/11/28 00:27:43;;;;;;;10.63;10.13;;;6.80;68.20;;;;;;5034352;28;20502;-86
2021/11/28 00:30:12;;;;;;;9.30;8.83;;;6.80;68.10;;;;;;5034343;28;20025;-87
2021/11/28 00:32:38;;;;;;;9.47;9.07;;;6.90;68.20;;;;;;5000661;28;20037;-87
2021/11/28 00:35:05;;;;;;;9.87;9.43;;;6.80;68.10;;;;;;5016917;28;20383;-88
2021/11/28 00:37:31;;;;;;;9.60;8.90;;;6.80;68.00;;;;;;5017298;28;20076;-87
2021/11/28 00:39:57;;;;;;;9.30;8.90;;;6.90;68.10;;;;;;5017520;28;20021;-87
2021/11/28 00:42:24;;;;;;;8.73;8.33;;;6.90;68.10;;;;;;5017017;28;20029;-87
2021/11/28 00:44:50;;;;;;;9.53;9.13;;;6.90;68.10;;;;;;5034538;28;20483;-87
2021/11/28 00:47:16;;;;;;;9.30;8.90;;;6.80;68.10;;;;;;5016005;28;20034;-86
2021/11/28 00:50:02;;;;;;;10.87;10.03;;;6.80;68.10;;;;;;5017002;28;20036;-87
2021/11/28 00:52:28;;;;;;;9.03;8.63;;;6.80;68.00;;;;;;5034366;28;20048;-88
2021/11/28 00:54:54;;;;;;;9.73;9.33;;;6.80;68.10;;;;;;5000994;28;20044;-87
2021/11/28 00:57:23;;;;;;;9.10;8.70;;;6.80;68.20;;;;;;5034323;28;20425;-88
2021/11/28 00:59:50;;;;;;;9.70;9.20;;;6.80;68.10;;;;;;5034308;28;20025;-88
2021/11/28 01:02:16;;;;;;;9.30;8.90;;;6.80;68.10;;;;;;5015876;28;20038;-87
2021/11/28 01:04:43;;;;;;;9.27;8.87;;;6.80;68.00;;;;;;5000221;28;20033;-88
2021/11/28 01:07:09;;;;;;;9.20;8.80;;;6.80;68.00;;;;;;5000859;28;20037;-87
2021/11/28 01:09:35;;;;;;;9.30;8.90;;;6.80;67.90;;;;;;5034065;28;20030;-88
2021/11/28 01:12:02;;;;;;;9.20;8.80;;;6.80;67.90;;;;;;5000047;28;20100;-87
2021/11/28 01:14:28;;;;;;;9.60;9.20;;;6.80;67.90;;;;;;5034022;28;20038;-87
2021/11/28 01:16:54;;;;;;;9.23;8.83;;;6.80;67.90;;;;;;5015629;28;20052;-87
2021/11/28 01:19:20;;;;;;;9.40;9.00;;;6.80;67.80;;;;;;5016544;28;20034;-87
2021/11/28 01:21:54;;;;;;;9.33;8.93;;;6.80;67.80;;;;;;5016746;28;20025;-86
2021/11/28 01:24:20;;;;;;;9.23;8.83;;;6.80;67.90;;;;;;5016643;28;20029;-87
2021/11/28 01:26:46;;;;;;;9.13;8.73;;;6.80;67.90;;;;;;5015389;28;20037;-87
2021/11/28 01:29:13;;;;;;;9.20;8.80;;;6.80;68.00;;;;;;5016059;28;20033;-87
2021/11/28 01:31:39;;;;;;;13.07;9.23;;;6.80;68.00;;;;;;4983966;28;20037;-88
2021/11/28 01:34:05;;;;;;;9.40;9.00;;;6.80;67.90;;;;;;5034290;28;20485;-87
2021/11/28 01:36:31;;;;;;;9.97;9.47;;;6.80;67.90;;;;;;5032930;28;20046;-88
2021/11/28 01:38:57;;;;;;;9.40;9.00;;;6.80;67.80;;;;;;5015859;28;20390;-87
2021/11/28 01:41:23;;;;;;;9.07;8.67;;;6.80;67.80;;;;;;5014652;28;20050;-88
2021/11/28 01:43:52;;;;;;;9.03;8.63;;;6.80;67.80;;;;;;5033143;28;20419;-87
2021/11/28 01:46:21;;;;;;;9.40;8.90;;;6.80;67.80;;;;;;5015729;28;20034;-87
2021/11/28 01:48:47;;;;;;;9.00;8.60;;;6.80;68.00;;;;;;5016545;28;20040;-87
2021/11/28 01:51:13;;;;;;;9.43;9.03;;;6.80;68.00;;;;;;5033287;28;20025;-87
2021/11/28 01:53:40;;;;;;;9.40;9.00;;;6.70;67.90;;;;;;5015724;28;20037;-87
2021/11/28 01:56:06;;;;;;;9.77;9.27;;;6.70;67.90;;;;;;5015667;28;20402;-87
2021/11/28 01:58:32;;;;;;;9.27;8.87;;;6.70;68.00;;;;;;5032862;28;20048;-87
2021/11/28 02:01:00;;;;;;;9.70;9.20;;;6.60;68.00;;;;;;5015551;28;20388;-87
2021/11/28 02:03:26;;;;;;;8.90;8.50;;;6.60;68.00;;;;;;4999212;28;20466;-88
2021/11/28 02:05:55;;;;;;;9.20;8.80;;;6.60;68.00;;;;;;4999018;28;20033;-87
2021/11/28 02:08:21;;;;;;;9.60;9.20;;;6.60;68.20;;;;;;4999343;28;20045;-87
2021/11/28 02:10:47;;;;;;;9.07;8.67;;;6.60;68.20;;;;;;5015318;28;20036;-88
2021/11/28 02:13:14;;;;;;;10.30;9.80;;;6.50;68.10;;;;;;5032782;28;20486;-87
2021/11/28 02:15:40;;;;;;;8.93;8.53;;;6.50;68.20;;;;;;5032408;28;20038;-87
2021/11/28 02:18:08;;;;;;;8.90;8.50;;;6.50;69.00;;;;;;4998766;28;20044;-87
2021/11/28 02:20:50;;;;;;;8.97;8.57;;;6.50;68.20;;;;;;5014833;28;20037;-87
2021/11/28 02:23:16;;;;;;;13.33;8.70;;;6.40;68.20;;;;;;5000114;28;20040;-87
2021/11/28 02:25:42;;;;;;;8.80;8.40;;;6.30;68.20;;;;;;5032849;28;20045;-87
2021/11/28 02:28:08;;;;;;;9.17;8.67;;;6.30;68.30;;;;;;5015358;28;20033;-87
2021/11/28 02:30:35;;;;;;;9.40;9.00;;;6.30;68.40;;;;;;5014394;28;20419;-87
2021/11/28 02:33:01;;;;;;;8.63;8.23;;;6.30;68.40;;;;;;5014908;28;20041;-87
2021/11/28 02:35:28;;;;;;;9.27;8.87;;;6.20;68.40;;;;;;5014735;28;20045;-88
2021/11/28 02:37:54;;;;;;;9.00;8.60;;;6.30;68.50;;;;;;5014898;28;20421;-88
2021/11/28 02:40:21;;;;;;;9.20;8.80;;;6.30;68.40;;;;;;5032737;28;20078;-88
2021/11/28 02:42:49;;;;;;;9.47;9.07;;;6.30;68.40;;;;;;4998591;28;20052;-89
2021/11/28 02:45:15;;;;;;;11.73;9.00;;;6.20;68.40;;;;;;5014387;28;20025;-88
2021/11/28 02:47:42;;;;;;;8.67;8.27;;;6.30;68.40;;;;;;5013426;28;20398;-87
2021/11/28 02:50:08;;;;;;;8.60;8.20;;;6.20;68.40;;;;;;5031856;28;20497;-88
2021/11/28 02:52:35;;;;;;;8.70;8.30;;;6.20;68.30;;;;;;5014703;28;20091;-87
2021/11/28 02:55:01;;;;;;;8.90;8.50;;;6.20;68.30;;;;;;5015225;28;20040;-88
2021/11/28 02:57:27;;;;;;;8.83;8.43;;;6.20;68.20;;;;;;5031797;28;20037;-88
2021/11/28 02:59:53;;;;;;;8.80;8.40;;;6.20;68.10;;;;;;5014006;28;20036;-88
2021/11/28 03:02:19;;;;;;;9.20;8.80;;;6.30;68.20;;;;;;5028099;28;20044;-88
2021/11/28 03:04:45;;;;;;;8.90;8.50;;;6.20;68.10;;;;;;5020765;28;20398;-89
2021/11/28 03:07:15;;;;;;;8.80;8.40;;;6.20;68.10;;;;;;4999864;28;20033;-88
2021/11/28 03:09:42;;;;;;;8.85;8.45;;;6.20;68.10;;;;;;5011814;28;20036;-88
2021/11/28 03:12:08;;;;;;;9.23;8.83;;;6.20;68.20;;;;;;5026806;28;20410;-89
2021/11/28 03:14:34;;;;;;;8.80;8.40;;;6.20;68.10;;;;;;5012128;28;20038;-87
2021/11/28 03:17:00;;;;;;;8.60;8.20;;;6.10;68.00;;;;;;4994625;28;20411;-87
2021/11/28 03:19:26;;;;;;;9.13;8.73;;;6.10;68.10;;;;;;4995210;28;20068;-88
2021/11/28 03:21:52;;;;;;;9.27;8.87;;;6.10;68.20;;;;;;5028608;28;20040;-88
2021/11/28 03:24:18;;;;;;;8.67;8.27;;;6.00;68.30;;;;;;5012136;28;20392;-87
2021/11/28 03:26:45;;;;;;;8.70;8.30;;;6.00;68.30;;;;;;5026606;28;20033;-87
2021/11/28 03:29:13;;;;;;;8.70;8.30;;;6.00;68.40;;;;;;5027126;28;20054;-88
2021/11/28 03:31:41;;;;;;;8.90;8.50;;;6.00;68.40;;;;;;5026875;28;20471;-88
2021/11/28 03:34:08;;;;;;;8.77;8.37;;;6.00;68.40;;;;;;5029168;28;20029;-88
2021/11/28 03:36:36;;;;;;;8.40;8.00;;;6.00;68.50;;;;;;4996018;28;20054;-88
2021/11/28 03:39:04;;;;;;;10.23;9.33;;;5.90;68.30;;;;;;5014025;28;20466;-88
2021/11/28 03:41:31;;;;;;;8.73;8.33;;;5.90;68.30;;;;;;5013620;28;20052;-88
2021/11/28 03:43:57;;;;;;;8.33;7.93;;;5.90;68.50;;;;;;5014035;28;20478;-88
2021/11/28 03:46:24;;;;;;;8.70;8.30;;;5.90;68.50;;;;;;4979243;28;20030;-88
2021/11/28 03:48:50;;;;;;;8.73;8.33;;;5.90;68.50;;;;;;4998225;28;20034;-88
2021/11/28 03:51:16;;;;;;;8.70;8.30;;;5.90;68.60;;;;;;5031476;28;20034;-88
2021/11/28 03:53:42;;;;;;;8.60;8.20;;;5.80;68.60;;;;;;5031371;28;20086;-88
2021/11/28 03:56:08;;;;;;;8.67;8.20;;;5.80;68.70;;;;;;5013587;28;20037;-88
2021/11/28 03:58:35;;;;;;;9.20;8.70;;;5.80;68.80;;;;;;4997801;28;20394;-89
2021/11/28 04:01:02;;;;;;;10.13;9.27;;;5.70;68.70;;;;;;5016903;28;20394;-87
2021/11/28 04:03:28;;;;;;;8.73;8.33;;;5.70;68.80;;;;;;5001582;28;20391;-89
2021/11/28 04:05:54;;;;;;;9.07;8.67;;;5.70;68.80;;;;;;5000762;28;20049;-88
2021/11/28 04:08:21;;;;;;;9.90;9.47;;;5.70;68.80;;;;;;5035251;28;20030;-88
2021/11/28 04:10:47;;;;;;;13.73;9.60;;;5.70;68.80;;;;;;5001061;28;20036;-89
2021/11/28 04:13:14;;;;;;;9.00;8.60;;;5.70;68.80;;;;;;5001430;28;20046;-88
2021/11/28 04:15:40;;;;;;;9.20;8.80;;;5.70;69.00;;;;;;5034560;28;20033;-88
2021/11/28 04:18:06;;;;;;;9.37;8.93;;;5.70;69.00;;;;;;5017389;28;20041;-88
2021/11/28 04:20:33;;;;;;;9.00;8.60;;;5.70;69.00;;;;;;5017258;28;20037;-88
2021/11/28 04:23:00;;;;;;;8.70;8.30;;;5.70;69.00;;;;;;5017645;28;20036;-88
2021/11/28 04:25:26;;;;;;;8.93;8.53;;;5.70;69.10;;;;;;5034577;28;20041;-89
2021/11/28 04:27:53;;;;;;;8.97;8.47;;;5.60;69.10;;;;;;5001010;28;20394;-88
2021/11/28 04:30:19;;;;;;;8.70;8.30;;;5.60;69.10;;;;;;5034343;28;20418;-88
2021/11/28 04:32:45;;;;;;;9.17;8.77;;;5.60;69.10;;;;;;5034699;28;20041;-88
2021/11/28 04:35:11;;;;;;;9.10;8.70;;;5.60;69.20;;;;;;5016970;28;20034;-88
2021/11/28 04:37:37;;;;;;;9.07;8.67;;;5.60;69.20;;;;;;5000742;28;20113;-88
2021/11/28 04:40:04;;;;;;;9.13;8.73;;;5.60;69.10;;;;;;5017290;28;20033;-88
2021/11/28 04:42:30;;;;;;;9.17;8.77;;;5.60;69.20;;;;;;5000772;28;20048;-87
2021/11/28 04:44:57;;;;;;;9.33;8.83;;;5.60;69.20;;;;;;5017003;28;20470;-89
2021/11/28 04:47:23;;;;;;;9.50;9.10;;;5.60;69.20;;;;;;5000266;28;20406;-88
2021/11/28 04:49:49;;;;;;;9.40;9.00;;;5.50;69.10;;;;;;5016942;28;20041;-89
2021/11/28 04:52:15;;;;;;;9.50;9.10;;;5.50;69.10;;;;;;4999914;28;20049;-88
2021/11/28 04:54:41;;;;;;;9.20;8.80;;;5.50;69.10;;;;;;5017194;28;20463;-88
2021/11/28 04:57:08;;;;;;;9.63;9.17;;;5.50;69.10;;;;;;5034294;28;20041;-88
2021/11/28 04:59:34;;;;;;;8.80;8.40;;;5.50;69.10;;;;;;5000401;28;20033;-88
2021/11/28 05:02:00;;;;;;;9.27;8.87;;;5.50;69.00;;;;;;5016205;28;20044;-88
2021/11/28 05:04:26;;;;;;;9.63;9.23;;;5.50;69.10;;;;;;5034418;28;20041;-88
2021/11/28 05:06:52;;;;;;;9.40;9.00;;;5.50;69.10;;;;;;5034403;28;20386;-88
2021/11/28 05:09:18;;;;;;;9.77;9.37;;;5.50;69.10;;;;;;5016300;28;20478;-87
2021/11/28 05:11:44;;;;;;;9.53;9.13;;;5.50;69.00;;;;;;4999388;28;20040;-88
2021/11/28 05:14:10;;;;;;;11.50;9.53;;;5.50;69.10;;;;;;5034107;28;20041;-88
2021/11/28 05:16:38;;;;;;;9.50;9.10;;;5.50;69.10;;;;;;4983580;28;20034;-88
2021/11/28 05:19:04;;;;;;;14.83;9.90;;;5.50;69.10;;;;;;5017089;28;20033;-87
2021/11/28 05:21:30;;;;;;;9.10;8.70;;;5.50;69.10;;;;;;5015950;28;20036;-88
2021/11/28 05:23:56;;;;;;;17.37;9.53;;;5.50;69.20;;;;;;5016189;28;20462;-88
2021/11/28 05:26:23;;;;;;;10.23;9.73;;;5.40;69.10;;;;;;5033917;28;20025;-88
2021/11/28 05:28:49;;;;;;;9.00;8.60;;;5.40;69.20;;;;;;5033857;28;20022;-88
2021/11/28 05:31:18;;;;;;;9.03;8.63;;;5.40;69.20;;;;;;5033416;28;20091;-88
2021/11/28 05:33:48;;;;;;;9.43;9.03;;;5.40;69.40;;;;;;5017113;28;20453;-88
2021/11/28 05:36:14;;;;;;;9.37;8.97;;;5.30;69.40;;;;;;5015683;28;20047;-88
2021/11/28 05:38:41;;;;;;;12.87;9.10;;;5.30;69.50;;;;;;5015904;28;20034;-89
2021/11/28 05:41:07;;;;;;;9.30;8.90;;;5.30;69.60;;;;;;5015908;28;20029;-89
2021/11/28 05:43:36;;;;;;;9.40;9.00;;;5.30;69.60;;;;;;5015998;28;20052;-89
2021/11/28 05:46:02;;;;;;;9.43;9.03;;;5.20;69.60;;;;;;5016063;28;20034;-88
2021/11/28 05:48:28;;;;;;;9.80;9.30;;;5.20;69.70;;;;;;4999766;28;20036;-89
2021/11/28 05:50:55;;;;;;;9.67;9.27;;;5.20;69.80;;;;;;5015442;28;20029;-89
2021/11/28 05:53:22;;;;;;;10.03;9.57;;;5.20;69.80;;;;;;5015667;28;20056;-88
2021/11/28 05:55:49;;;;;;;9.57;8.90;;;5.20;69.80;;;;;;5015600;28;20021;-88
2021/11/28 05:58:15;;;;;;;9.77;9.37;;;5.10;69.80;;;;;;5015800;28;20033;-89
2021/11/28 06:00:41;;;;;;;11.13;10.43;;;5.10;69.80;;;;;;4999353;28;20398;-88
2021/11/28 06:03:07;;;;;;;9.60;9.20;;;5.10;69.90;;;;;;5033004;28;20033;-88
2021/11/28 06:05:33;;;;;;;9.03;8.63;;;5.10;69.90;;;;;;4998860;28;20033;-88
2021/11/28 06:07:59;;;;;;;9.20;8.80;;;5.10;70.00;;;;;;4999357;28;20041;-88
2021/11/28 06:10:25;;;;;;;8.87;8.47;;;5.10;70.00;;;;;;5033052;28;20033;-89
2021/11/28 06:12:52;;;;;;;9.13;8.73;;;5.10;70.00;;;;;;5015829;28;20046;-87
2021/11/28 06:15:18;;;;;;;10.27;9.47;;;5.10;70.00;;;;;;5032238;28;20466;-89
2021/11/28 06:17:44;;;;;;;9.50;9.00;;;5.10;70.00;;;;;;5015226;28;20030;-87
2021/11/28 06:20:10;;;;;;;9.20;8.80;;;5.00;70.00;;;;;;5014928;28;20028;-88
2021/11/28 06:22:36;;;;;;;9.30;8.90;;;5.00;70.00;;;;;;5015161;28;20021;-89
2021/11/28 06:25:03;;;;;;;9.50;9.10;;;5.00;70.00;;;;;;5015654;28;20037;-88
2021/11/28 06:27:29;;;;;;;10.60;9.97;;;5.00;70.00;;;;;;5032651;28;20032;-88
2021/11/28 06:29:55;;;;;;;9.97;9.47;;;5.00;70.10;;;;;;5014478;28;20042;-88
2021/11/28 06:32:22;;;;;;;9.20;8.80;;;5.00;70.20;;;;;;4998019;28;20032;-89
2021/11/28 06:34:48;;;;;;;9.10;8.70;;;5.00;70.20;;;;;;5014648;28;20477;-88
2021/11/28 06:37:14;;;;;;;9.00;8.60;;;5.00;70.20;;;;;;4999984;28;20060;-88
2021/11/28 06:39:40;;;;;;;9.20;8.80;;;5.00;70.20;;;;;;5015024;28;20037;-89
2021/11/28 06:42:06;;;;;;;9.10;8.70;;;5.00;70.20;;;;;;5014786;28;20028;-88
2021/11/28 06:44:32;;;;;;;9.07;8.67;;;5.00;70.20;;;;;;5014797;28;20037;-88
2021/11/28 06:46:58;;;;;;;8.90;8.50;;;5.00;70.20;;;;;;5014164;28;20037;-88
2021/11/28 06:49:26;;;;;;;9.07;8.67;;;5.00;70.20;;;;;;4998233;28;20026;-88
2021/11/28 06:51:56;;;;;;;9.13;8.73;;;4.90;70.20;;;;;;4997368;28;20029;-88
2021/11/28 06:54:23;;;;;;;9.13;8.73;;;4.90;70.30;;;;;;5014538;28;20038;-88
2021/11/28 06:56:49;;;;;;;9.20;8.80;;;4.90;70.30;;;;;;4998183;28;20037;-89
2021/11/28 06:59:15;;;;;;;9.40;9.00;;;4.90;70.40;;;;;;4998032;28;20030;-88
2021/11/28 07:01:41;;;;;;;9.63;9.17;;;4.90;71.20;;;;;;4998010;28;20029;-88
2021/11/28 07:04:07;;;;;;;9.47;9.07;;;4.90;70.50;;;;;;5014727;28;20026;-88
2021/11/28 07:06:33;;;;;;;9.43;9.00;;;4.90;70.40;;;;;;4998081;28;20486;-88
2021/11/28 07:08:59;;;;;;;9.93;9.43;;;4.90;70.40;;;;;;5014439;28;20026;-88
2021/11/28 07:11:26;;;;;;;9.03;8.63;;;4.80;70.40;;;;;;5013495;28;20033;-87
2021/11/28 07:13:52;;;;;;;9.67;9.13;;;4.80;70.50;;;;;;4981685;28;20045;-87
2021/11/28 07:16:19;;;;;;;9.00;8.60;;;4.80;70.50;;;;;;5031617;28;20026;-88
2021/11/28 07:18:45;;;;;;;9.30;8.87;;;4.80;70.60;;;;;;4997615;28;20044;-87
2021/11/28 07:21:12;;;;;;;9.20;8.80;;;4.80;70.60;;;;;;5014339;28;20017;-87
2021/11/28 07:23:38;;;;;;;10.70;10.10;;;4.80;70.60;;;;;;5014358;28;20482;-88
2021/11/28 07:26:04;;;;;;;9.17;8.77;;;4.80;70.60;;;;;;5014073;28;20022;-88
2021/11/28 07:28:31;;;;;;;9.10;8.70;;;4.80;70.70;;;;;;5014201;28;20033;-87
2021/11/28 07:30:57;;;;;;;9.30;8.90;;;4.80;70.60;;;;;;5013706;28;20398;-87
2021/11/28 07:33:23;;;;;;;9.90;9.20;;;4.80;70.60;;;;;;5013679;28;20064;-87
2021/11/28 07:35:49;;;;;;;9.50;9.03;;;4.80;70.50;;;;;;5031000;28;20048;-88
2021/11/28 07:38:15;;;;;;;10.57;9.60;;;4.80;70.60;;;;;;4997745;28;20033;-87
2021/11/28 07:40:41;;;;;;;9.40;9.00;;;4.90;70.50;;;;;;5014261;28;20032;-87
2021/11/28 07:43:07;;;;;;;9.27;8.87;;;4.90;70.60;;;;;;5014635;28;20030;-88
2021/11/28 07:45:33;;;;;;;8.90;8.50;;;4.90;70.60;;;;;;5013569;28;20038;-87
2021/11/28 07:48:00;;;;;;;9.67;9.17;;;4.90;70.60;;;;;;5012835;28;20033;-87
2021/11/28 07:50:26;;;;;;;9.60;9.10;;;4.90;70.60;;;;;;5013949;28;20037;-88
2021/11/28 07:52:52;;;;;;;9.10;8.70;;;4.90;70.60;;;;;;4997244;28;20042;-87
2021/11/28 07:55:18;;;;;;;9.03;8.60;;;4.90;70.50;;;;;;5014116;28;20479;-87
2021/11/28 07:57:45;;;;;;;9.37;8.97;;;5.00;70.50;;;;;;4997477;28;20034;-86
2021/11/28 08:00:12;;;;;;;9.57;9.07;;;5.00;70.50;;;;;;5030493;28;20040;-87
2021/11/28 08:02:38;;;;;;;9.33;8.93;;;5.00;70.50;;;;;;5013491;28;20030;-87
2021/11/28 08:05:05;;;;;;;9.10;8.70;;;5.00;70.60;;;;;;5013856;28;20026;-86
2021/11/28 08:07:32;;;;;;;9.10;8.60;;;5.00;70.60;;;;;;4996694;28;20749;-88
2021/11/28 08:09:58;;;;;;;9.00;8.60;;;5.00;70.50;;;;;;4998113;28;20025;-87
2021/11/28 08:12:24;;;;;;;9.40;9.00;;;5.00;70.50;;;;;;4997434;28;20065;-85
2021/11/28 08:14:51;;;;;;;9.53;9.10;;;5.00;70.60;;;;;;5013440;28;20050;-87
2021/11/28 08:17:17;;;;;;;9.70;9.20;;;5.00;70.60;;;;;;5030319;28;20057;-87
2021/11/28 08:19:43;;;;;;;10.43;9.73;;;5.10;70.70;;;;;;5013862;28;20038;-87
2021/11/28 08:22:09;;;;;;;9.47;9.07;;;5.00;70.60;;;;;;5031863;28;20486;-87
2021/11/28 08:24:36;;;;;;;9.40;9.00;;;5.00;70.60;;;;;;4997268;28;20042;-87
2021/11/28 08:27:02;;;;;;;9.30;8.90;;;5.10;70.70;;;;;;4997331;28;20041;-87
2021/11/28 08:29:28;;;;;;;9.40;9.00;;;5.10;70.70;;;;;;5013582;28;20391;-87
2021/11/28 08:31:54;;;;;;;8.83;8.43;;;5.10;70.60;;;;;;5030220;28;20040;-88
2021/11/28 08:34:21;;;;;;;8.90;8.50;;;5.20;70.70;;;;;;4993478;28;20050;-87
2021/11/28 08:36:47;;;;;;;9.20;8.80;;;5.20;70.70;;;;;;5031330;28;20041;-87
2021/11/28 08:39:13;;;;;;;9.30;8.90;;;5.20;70.60;;;;;;4996336;28;20033;-87
2021/11/28 08:41:40;;;;;;;10.33;9.73;;;5.20;70.60;;;;;;4997455;28;20030;-87
2021/11/28 08:44:06;;;;;;;9.50;9.00;;;5.20;70.60;;;;;;5013556;28;20041;-87
2021/11/28 08:46:32;;;;;;;9.43;9.03;;;5.30;70.60;;;;;;5030973;28;20536;-87
2021/11/28 08:48:58;;;;;;;9.40;9.00;;;5.40;70.60;;;;;;5017432;28;20382;-87
2021/11/28 08:51:25;;;;;;;9.27;8.87;;;5.40;70.50;;;;;;5016887;28;20025;-88
2021/11/28 08:53:56;;;;;;;9.33;8.93;;;5.40;70.50;;;;;;5016924;28;20037;-87
2021/11/28 08:56:23;;;;;;;9.48;9.07;;;5.50;70.50;;;;;;5034515;28;20040;-87
2021/11/28 08:58:50;;;;;;;9.40;9.00;;;5.50;70.40;;;;;;5034129;28;20029;-87
2021/11/28 09:01:16;;;;;;;9.37;8.97;;;5.60;70.40;;;;;;5034123;28;20041;-88
2021/11/28 09:03:42;;;;;;;9.33;8.87;;;5.60;70.40;;;;;;5000778;28;20033;-87
2021/11/28 09:06:08;;;;;;;9.00;8.60;;;5.70;70.30;;;;;;5034201;28;20040;-87
2021/11/28 09:08:37;;;;;;;9.77;9.27;;;5.70;70.30;;;;;;5000330;28;21603;-87
2021/11/28 09:11:05;;;;;;;9.40;9.00;;;5.80;70.30;;;;;;5017002;28;20034;-88
2021/11/28 09:13:34;;;;;;;9.30;8.90;;;5.80;70.20;;;;;;5033803;28;20042;-87
2021/11/28 09:16:01;;;;;;;9.80;9.37;;;5.90;70.20;;;;;;5034113;28;20029;-87
2021/11/28 09:18:37;;;;;;;9.87;9.43;;;5.90;70.20;;;;;;5016412;28;20034;-87
2021/11/28 09:21:03;;;;;;;10.20;9.70;;;6.00;70.20;;;;;;5017839;28;20029;-87
2021/11/28 09:26:14;;;;;;;9.50;9.10;;;6.00;70.90;;;;;;5037705;28;20029;-88
2021/11/28 09:28:40;;;;;;;8.60;8.20;;;6.10;70.10;;;;;;5015907;28;20037;-87
2021/11/28 09:31:10;;;;;;;9.60;9.20;;;6.20;70.10;;;;;;5016192;28;20101;-88
2021/11/28 09:33:39;;;;;;;10.17;9.67;;;6.20;70.00;;;;;;5016510;28;20044;-88
2021/11/28 09:36:06;;;;;;;9.73;9.33;;;6.30;69.90;;;;;;4999497;28;20462;-89
2021/11/28 09:38:32;;;;;;;9.03;8.63;;;6.40;69.90;;;;;;5015999;28;20037;-88
2021/11/28 09:41:03;;;;;;;9.43;9.03;;;6.40;69.80;;;;;;5033607;28;20037;-87
2021/11/28 09:43:30;;;;;;;9.43;9.02;;;6.50;69.80;;;;;;5016126;28;20037;-88
2021/11/28 09:45:56;;;;;;;11.03;10.53;;;6.50;69.80;;;;;;5015783;28;20034;-87
2021/11/28 09:48:23;;;;;;;10.23;9.73;;;6.60;69.80;;;;;;4999468;28;20029;-88
2021/11/28 09:50:49;;;;;;;10.90;10.30;;;6.90;69.50;;;;;;5033353;28;20041;-88
2021/11/28 09:53:16;;;;;;;12.27;10.60;;;7.40;68.80;;;;;;5015693;28;20041;-88
2021/11/28 09:55:42;;;;;;;11.30;10.80;;;7.70;67.80;;;;;;4999547;28;20045;-88
2021/11/28 09:58:08;;;;;;;11.67;11.07;;;7.90;67.30;;;;;;5015580;28;20379;-88
2021/11/28 10:00:34;;;;;;;10.27;9.77;;;8.00;67.00;;;;;;4998851;28;20053;-88
2021/11/28 10:03:00;;;;;;;11.07;10.57;;;8.00;67.80;;;;;;5015486;28;20033;-88
2021/11/28 10:05:27;;;;;;;10.03;9.57;;;7.90;67.10;;;;;;4999140;28;20386;-88
2021/11/28 10:07:53;;;;;;;10.60;10.10;;;7.80;67.50;;;;;;5033136;28;20036;-88
2021/11/28 10:10:19;;;;;;;10.23;9.73;;;7.70;67.90;;;;;;5033295;28;20033;-89
2021/11/28 10:12:48;;;;;;;10.17;9.67;;;7.60;68.10;;;;;;5014764;28;20021;-88
2021/11/28 10:15:17;;;;;;;11.47;10.87;;;7.60;68.10;;;;;;4998880;28;20056;-88
2021/11/28 10:17:43;;;;;;;10.00;9.50;;;7.60;68.30;;;;;;5015331;28;20399;-88
2021/11/28 10:20:21;;;;;;;9.93;9.43;;;7.60;68.40;;;;;;4999023;28;20052;-88
2021/11/28 10:22:48;;;;;;;10.70;10.20;;;7.60;68.30;;;;;;4985576;28;20029;-88
2021/11/28 10:25:21;;;;;;;10.65;10.15;;;7.50;68.40;;;;;;4999151;28;20455;-88
2021/11/28 10:27:50;;;;;;;10.20;9.70;;;7.50;68.50;;;;;;5015444;28;20497;-88
2021/11/28 10:30:18;;;;;;;11.47;10.97;;;7.50;68.60;;;;;;4998483;28;20041;-88
2021/11/28 10:32:49;;;;;;;10.30;9.80;;;7.50;68.60;;;;;;5015192;28;20025;-89
2021/11/28 10:35:15;;;;;;;10.37;9.87;;;7.50;68.70;;;;;;4998585;28;20033;-88
2021/11/28 10:37:50;;;;;;;9.80;9.40;;;7.50;68.70;;;;;;5015133;28;20412;-88
2021/11/28 10:40:22;;;;;;;10.00;9.50;;;7.60;68.60;;;;;;5011460;28;20021;-88
2021/11/28 10:42:52;;;;;;;10.30;9.80;;;7.70;68.40;;;;;;5014904;28;20478;-88
2021/11/28 10:45:22;;;;;;;10.20;9.70;;;7.80;68.10;;;;;;5014331;28;20021;-89
2021/11/28 10:47:56;;;;;;;10.07;9.57;;;7.90;67.90;;;;;;5032392;28;20026;-89
2021/11/28 10:50:29;;;;;;;10.57;10.07;;;8.10;67.70;;;;;;4998745;28;20028;-88
2021/11/28 10:53:15;;;;;;;10.17;9.67;;;8.20;67.50;;;;;;5032313;28;20026;-88
2021/11/28 10:55:49;;;;;;;9.63;9.23;;;8.40;67.30;;;;;;4983501;28;20398;-89
2021/11/28 10:58:19;;;;;;;10.48;9.98;;;8.40;66.90;;;;;;5011724;28;20032;-89
2021/11/28 11:00:45;;;;;;;10.23;9.73;;;8.50;66.90;;;;;;5014802;28;20063;-89
2021/11/28 11:03:16;;;;;;;10.60;9.90;;;8.50;67.10;;;;;;5032060;28;20036;-89
2021/11/28 11:05:43;;;;;;;10.50;10.00;;;8.40;67.30;;;;;;5014551;28;20029;-90
2021/11/28 11:08:09;;;;;;;11.25;10.65;;;8.30;67.40;;;;;;4997811;28;20029;-89
2021/11/28 11:10:35;;;;;;;11.17;10.67;;;8.30;67.50;;;;;;5031121;28;20025;-88
2021/11/28 11:13:03;;;;;;;10.45;9.95;;;8.40;67.70;;;;;;5015130;28;20111;-89
2021/11/28 11:15:35;;;;;;;11.80;11.10;;;8.40;67.60;;;;;;4998037;28;20041;-88
2021/11/28 11:18:03;;;;;;;10.85;10.35;;;8.40;67.60;;;;;;4981053;28;20045;-89
2021/11/28 11:20:31;;;;;;;10.38;9.88;;;8.50;67.60;;;;;;4998271;28;20398;-89
2021/11/28 11:22:57;;;;;;;10.30;9.80;;;8.50;67.50;;;;;;5014234;28;20428;-88
2021/11/28 11:25:36;;;;;;;10.68;10.18;;;8.60;67.60;;;;;;5031488;28;20025;-89
2021/11/28 11:28:13;;;;;;;10.90;10.40;;;8.70;67.40;;;;;;5014144;28;20022;-88
2021/11/28 11:30:40;;;;;;;11.20;10.70;;;8.70;67.20;;;;;;5013769;28;20033;-88
2021/11/28 11:33:07;;;;;;;11.70;11.20;;;8.70;67.20;;;;;;5031653;28;20029;-88
2021/11/28 11:35:40;;;;;;;12.48;11.88;;;8.80;67.20;;;;;;5013359;28;20052;-89
2021/11/28 11:38:08;;;;;;;11.50;11.00;;;8.80;67.10;;;;;;5013409;28;20044;-89
2021/11/28 11:40:35;;;;;;;11.23;10.65;;;8.90;67.00;;;;;;5031503;28;20029;-89
2021/11/28 11:43:01;;;;;;;11.15;10.65;;;8.90;66.80;;;;;;5014181;28;20044;-89
2021/11/28 11:45:28;;;;;;;11.95;11.35;;;8.80;66.80;;;;;;5013551;28;20041;-89
2021/11/28 11:47:55;;;;;;;12.23;11.55;;;8.80;67.00;;;;;;4997771;28;20030;-89
2021/11/28 11:50:24;;;;;;;11.50;11.00;;;8.80;67.00;;;;;;4997198;28;20046;-88
2021/11/28 11:52:51;;;;;;;11.70;11.20;;;8.80;67.20;;;;;;5013796;28;20525;-89
2021/11/28 11:55:17;;;;;;;11.77;11.27;;;8.80;67.10;;;;;;5014168;28;20049;-88
2021/11/28 11:57:56;;;;;;;11.57;11.07;;;8.80;67.10;;;;;;5014300;28;20026;-88
2021/11/28 12:00:26;;;;;;;11.35;10.85;;;8.80;67.20;;;;;;5013369;28;20037;-89
2021/11/28 12:02:53;;;;;;;11.40;10.90;;;8.70;67.20;;;;;;5031364;28;20037;-89
2021/11/28 12:05:25;;;;;;;11.57;11.07;;;8.70;68.00;;;;;;5013763;28;20288;-89
2021/11/28 12:07:53;;;;;;;11.65;11.15;;;8.70;67.30;;;;;;5031175;28;20029;-89
2021/11/28 12:10:52;;;;;;;11.60;11.10;;;8.80;67.30;;;;;;4997934;28;20027;-88
2021/11/28 12:13:24;;;;;;;11.75;11.25;;;8.90;67.00;;;;;;5011033;28;20022;-89
2021/11/28 12:16:11;;;;;;;11.95;11.45;;;9.10;66.50;;;;;;5031029;28;20413;-88
2021/11/28 12:18:43;;;;;;;12.60;12.00;;;9.10;66.30;;;;;;4995818;28;20049;-88
2021/11/28 12:21:10;;;;;;;11.55;11.05;;;9.10;66.30;;;;;;5000107;28;20481;-88
2021/11/28 12:23:55;;;;;;;11.93;11.20;;;9.00;66.40;;;;;;5017202;28;20378;-89
2021/11/28 12:26:27;;;;;;;12.40;11.80;;;9.00;66.60;;;;;;5016635;28;20037;-89
2021/11/28 12:28:56;;;;;;;11.65;11.15;;;9.10;66.50;;;;;;5035111;28;20033;-89
2021/11/28 12:31:26;;;;;;;11.98;11.45;;;9.30;66.90;;;;;;5034494;28;20029;-89
2021/11/28 12:33:52;;;;;;;12.25;11.65;;;9.50;65.90;;;;;;5017640;28;20040;-89
2021/11/28 12:36:34;;;;;;;12.93;12.32;;;9.60;65.50;;;;;;5034399;28;20041;-89
2021/11/28 12:39:01;;;;;;;12.93;12.32;;;9.80;65.30;;;;;;5034682;28;20026;-89
2021/11/28 12:41:45;;;;;;;13.02;12.43;;;9.90;65.00;;;;;;5034691;28;20029;-89
2021/11/28 12:44:22;;;;;;;13.57;12.98;;;10.10;64.80;;;;;;5034687;28;20040;-90
2021/11/28 12:47:16;;;;;;;12.95;12.35;;;10.20;64.50;;;;;;5019146;28;20029;-89
2021/11/28 12:49:44;;;;;;;13.63;13.02;;;10.20;64.40;;;;;;4987612;28;20041;-89
2021/11/28 12:52:25;;;;;;;13.05;12.45;;;10.20;64.40;;;;;;5012973;28;20517;-88
2021/11/28 12:55:04;;;;;;;14.48;13.80;;;10.20;64.50;;;;;;5034637;28;20038;-89
2021/11/28 12:57:36;;;;;;;14.95;14.25;;;10.20;64.50;;;;;;5034489;28;20026;-89
2021/11/28 13:00:27;;;;;;;14.52;13.82;;;10.20;64.40;;;;;;5001343;28;20037;-83